sensor_id;sensor_type;location;lat;lon;timestamp;temperature;humidity
5346;DHT22;2695;49.444;11.054;2023-07-09T00:00:46;24.30;60.00
5346;DHT22;2695;49.444;11.054;2023-07-09T00:03:17;24.30;60.20
5346;DHT22;2695;49.444;11.054;2023-07-09T00:05:48;24.20;60.50
5346;DHT22;2695;49.444;11.054;2023-07-09T00:08:25;24.10;60.80
5346;DHT22;2695;49.444;11.054;2023-07-09T00:10:54;24.10;61.20
5346;DHT22;2695;49.444;11.054;2023-07-09T00:13:22;24.10;61.30
5346;DHT22;2695;49.444;11.054;2023-07-09T00:15:50;24.10;61.70
5346;DHT22;2695;49.444;11.054;2023-07-09T00:18:18;24.00;61.40
5346;DHT22;2695;49.444;11.054;2023-07-09T00:20:47;24.00;61.10
5346;DHT22;2695;49.444;11.054;2023-07-09T00:23:15;23.90;61.50
5346;DHT22;2695;49.444;11.054;2023-07-09T00:25:47;23.90;61.80
5346;DHT22;2695;49.444;11.054;2023-07-09T00:28:16;23.80;62.00
5346;DHT22;2695;49.444;11.054;2023-07-09T00:30:44;23.80;62.50
5346;DHT22;2695;49.444;11.054;2023-07-09T00:33:13;23.70;62.90
5346;DHT22;2695;49.444;11.054;2023-07-09T00:35:42;23.60;63.00
5346;DHT22;2695;49.444;11.054;2023-07-09T00:38:17;23.60;63.40
5346;DHT22;2695;49.444;11.054;2023-07-09T00:40:48;23.50;63.70
5346;DHT22;2695;49.444;11.054;2023-07-09T00:43:16;23.40;64.10
5346;DHT22;2695;49.444;11.054;2023-07-09T00:45:44;23.30;64.70
5346;DHT22;2695;49.444;11.054;2023-07-09T00:48:14;23.20;65.10
5346;DHT22;2695;49.444;11.054;2023-07-09T00:50:48;23.20;65.50
5346;DHT22;2695;49.444;11.054;2023-07-09T00:53:20;23.20;65.90
5346;DHT22;2695;49.444;11.054;2023-07-09T00:55:53;23.10;65.80
5346;DHT22;2695;49.444;11.054;2023-07-09T00:58:24;23.10;65.50
5346;DHT22;2695;49.444;11.054;2023-07-09T01:01:00;23.10;65.10
5346;DHT22;2695;49.444;11.054;2023-07-09T01:03:32;23.10;64.70
5346;DHT22;2695;49.444;11.054;2023-07-09T01:06:02;23.00;65.10
5346;DHT22;2695;49.444;11.054;2023-07-09T01:08:35;23.00;64.80
5346;DHT22;2695;49.444;11.054;2023-07-09T01:11:04;23.00;65.00
5346;DHT22;2695;49.444;11.054;2023-07-09T01:13:35;23.00;64.60
5346;DHT22;2695;49.444;11.054;2023-07-09T01:16:06;23.10;64.90
5346;DHT22;2695;49.444;11.054;2023-07-09T01:18:34;23.10;65.40
5346;DHT22;2695;49.444;11.054;2023-07-09T01:21:09;23.00;65.70
5346;DHT22;2695;49.444;11.054;2023-07-09T01:23:42;23.00;66.30
5346;DHT22;2695;49.444;11.054;2023-07-09T01:26:11;22.90;66.40
5346;DHT22;2695;49.444;11.054;2023-07-09T01:28:40;22.90;66.70
5346;DHT22;2695;49.444;11.054;2023-07-09T01:31:10;22.80;65.90
5346;DHT22;2695;49.444;11.054;2023-07-09T01:33:38;22.80;66.30
5346;DHT22;2695;49.444;11.054;2023-07-09T01:36:09;22.70;65.90
5346;DHT22;2695;49.444;11.054;2023-07-09T01:38:37;22.70;65.90
5346;DHT22;2695;49.444;11.054;2023-07-09T01:41:05;22.70;66.20
5346;DHT22;2695;49.444;11.054;2023-07-09T01:43:34;22.60;65.70
5346;DHT22;2695;49.444;11.054;2023-07-09T01:46:03;22.50;65.90
5346;DHT22;2695;49.444;11.054;2023-07-09T01:48:31;22.60;66.30
5346;DHT22;2695;49.444;11.054;2023-07-09T01:50:59;22.50;66.60
5346;DHT22;2695;49.444;11.054;2023-07-09T01:53:30;22.50;66.70
5346;DHT22;2695;49.444;11.054;2023-07-09T01:56:00;22.50;66.60
5346;DHT22;2695;49.444;11.054;2023-07-09T01:58:28;22.50;66.70
5346;DHT22;2695;49.444;11.054;2023-07-09T02:00:58;22.40;66.10
5346;DHT22;2695;49.444;11.054;2023-07-09T02:03:27;22.40;65.80
5346;DHT22;2695;49.444;11.054;2023-07-09T02:05:55;22.30;65.70
5346;DHT22;2695;49.444;11.054;2023-07-09T02:08:24;22.30;65.60
5346;DHT22;2695;49.444;11.054;2023-07-09T02:10:53;22.20;65.70
5346;DHT22;2695;49.444;11.054;2023-07-09T02:13:21;22.20;65.60
5346;DHT22;2695;49.444;11.054;2023-07-09T02:15:49;22.10;65.70
5346;DHT22;2695;49.444;11.054;2023-07-09T02:18:17;22.00;66.00
5346;DHT22;2695;49.444;11.054;2023-07-09T02:20:45;22.10;66.50
5346;DHT22;2695;49.444;11.054;2023-07-09T02:23:13;22.00;66.40
5346;DHT22;2695;49.444;11.054;2023-07-09T02:25:41;21.90;66.60
5346;DHT22;2695;49.444;11.054;2023-07-09T02:28:11;21.90;67.00
5346;DHT22;2695;49.444;11.054;2023-07-09T02:30:39;21.80;67.20
5346;DHT22;2695;49.444;11.054;2023-07-09T02:33:07;21.80;67.40
5346;DHT22;2695;49.444;11.054;2023-07-09T02:35:35;21.80;67.50
5346;DHT22;2695;49.444;11.054;2023-07-09T02:38:04;21.80;67.90
5346;DHT22;2695;49.444;11.054;2023-07-09T02:40:32;21.80;67.90
5346;DHT22;2695;49.444;11.054;2023-07-09T02:43:00;21.80;68.20
5346;DHT22;2695;49.444;11.054;2023-07-09T02:45:30;21.80;68.50
5346;DHT22;2695;49.444;11.054;2023-07-09T02:47:58;21.80;68.30
5346;DHT22;2695;49.444;11.054;2023-07-09T02:50:26;21.70;68.20
5346;DHT22;2695;49.444;11.054;2023-07-09T02:52:54;21.70;68.40
5346;DHT22;2695;49.444;11.054;2023-07-09T02:55:22;21.70;68.70
5346;DHT22;2695;49.444;11.054;2023-07-09T02:57:50;21.60;68.60
5346;DHT22;2695;49.444;11.054;2023-07-09T03:00:19;21.60;68.70
5346;DHT22;2695;49.444;11.054;2023-07-09T03:02:48;21.60;68.90
5346;DHT22;2695;49.444;11.054;2023-07-09T03:05:16;21.60;69.40
5346;DHT22;2695;49.444;11.054;2023-07-09T03:07:44;21.50;69.70
5346;DHT22;2695;49.444;11.054;2023-07-09T03:10:12;21.60;70.40
5346;DHT22;2695;49.444;11.054;2023-07-09T03:12:40;21.60;70.80
5346;DHT22;2695;49.444;11.054;2023-07-09T03:15:09;21.70;72.50
5346;DHT22;2695;49.444;11.054;2023-07-09T03:17:36;21.70;73.50
5346;DHT22;2695;49.444;11.054;2023-07-09T03:20:07;21.70;74.00
5346;DHT22;2695;49.444;11.054;2023-07-09T03:22:35;21.70;74.20
5346;DHT22;2695;49.444;11.054;2023-07-09T03:25:03;21.70;74.40
5346;DHT22;2695;49.444;11.054;2023-07-09T03:27:31;21.70;74.50
5346;DHT22;2695;49.444;11.054;2023-07-09T03:29:59;21.20;73.90
5346;DHT22;2695;49.444;11.054;2023-07-09T03:32:27;21.70;74.50
5346;DHT22;2695;49.444;11.054;2023-07-09T03:34:55;21.60;74.60
5346;DHT22;2695;49.444;11.054;2023-07-09T03:37:25;21.70;74.60
5346;DHT22;2695;49.444;11.054;2023-07-09T03:39:53;21.70;74.50
5346;DHT22;2695;49.444;11.054;2023-07-09T03:42:20;21.70;74.80
5346;DHT22;2695;49.444;11.054;2023-07-09T03:44:49;21.70;74.70
5346;DHT22;2695;49.444;11.054;2023-07-09T03:47:16;21.80;73.70
5346;DHT22;2695;49.444;11.054;2023-07-09T03:49:45;22.10;73.10
5346;DHT22;2695;49.444;11.054;2023-07-09T03:52:13;22.40;72.20
5346;DHT22;2695;49.444;11.054;2023-07-09T03:54:42;22.80;70.70
5346;DHT22;2695;49.444;11.054;2023-07-09T03:57:10;23.10;69.80
5346;DHT22;2695;49.444;11.054;2023-07-09T03:59:38;23.50;68.20
5346;DHT22;2695;49.444;11.054;2023-07-09T04:02:07;23.80;67.20
5346;DHT22;2695;49.444;11.054;2023-07-09T04:04:34;24.10;66.00
5346;DHT22;2695;49.444;11.054;2023-07-09T04:07:03;24.30;65.10
5346;DHT22;2695;49.444;11.054;2023-07-09T04:09:31;24.70;63.70
5346;DHT22;2695;49.444;11.054;2023-07-09T04:12:00;25.10;62.40
5346;DHT22;2695;49.444;11.054;2023-07-09T04:14:29;25.50;61.50
5346;DHT22;2695;49.444;11.054;2023-07-09T04:16:57;26.00;60.10
5346;DHT22;2695;49.444;11.054;2023-07-09T04:19:25;26.40;59.10
5346;DHT22;2695;49.444;11.054;2023-07-09T04:21:53;26.70;58.00
5346;DHT22;2695;49.444;11.054;2023-07-09T04:24:22;27.00;56.10
5346;DHT22;2695;49.444;11.054;2023-07-09T04:26:50;27.10;55.10
5346;DHT22;2695;49.444;11.054;2023-07-09T04:29:24;27.10;54.80
5346;DHT22;2695;49.444;11.054;2023-07-09T04:31:52;27.30;54.50
5346;DHT22;2695;49.444;11.054;2023-07-09T04:34:20;27.60;54.20
5346;DHT22;2695;49.444;11.054;2023-07-09T04:36:48;27.90;53.60
5346;DHT22;2695;49.444;11.054;2023-07-09T04:39:16;28.20;52.60
5346;DHT22;2695;49.444;11.054;2023-07-09T04:41:44;28.70;51.70
5346;DHT22;2695;49.444;11.054;2023-07-09T04:44:12;28.90;51.20
5346;DHT22;2695;49.444;11.054;2023-07-09T04:46:41;29.20;49.60
5346;DHT22;2695;49.444;11.054;2023-07-09T04:49:09;29.40;48.50
5346;DHT22;2695;49.444;11.054;2023-07-09T04:51:39;29.50;48.00
5346;DHT22;2695;49.444;11.054;2023-07-09T04:54:07;29.50;47.90
5346;DHT22;2695;49.444;11.054;2023-07-09T04:56:35;29.70;47.50
5346;DHT22;2695;49.444;11.054;2023-07-09T04:59:04;29.70;47.20
5346;DHT22;2695;49.444;11.054;2023-07-09T05:01:32;30.00;46.90
5346;DHT22;2695;49.444;11.054;2023-07-09T05:04:01;30.00;46.40
5346;DHT22;2695;49.444;11.054;2023-07-09T05:06:30;30.10;46.30
5346;DHT22;2695;49.444;11.054;2023-07-09T05:08:58;30.30;45.70
5346;DHT22;2695;49.444;11.054;2023-07-09T05:11:26;30.50;45.40
5346;DHT22;2695;49.444;11.054;2023-07-09T05:13:54;30.90;44.40
5346;DHT22;2695;49.444;11.054;2023-07-09T05:16:22;30.80;44.60
5346;DHT22;2695;49.444;11.054;2023-07-09T05:18:50;30.70;45.00
5346;DHT22;2695;49.444;11.054;2023-07-09T05:21:20;31.00;44.70
5346;DHT22;2695;49.444;11.054;2023-07-09T05:23:48;31.50;43.80
5346;DHT22;2695;49.444;11.054;2023-07-09T05:26:16;32.20;42.40
5346;DHT22;2695;49.444;11.054;2023-07-09T05:28:44;32.40;41.90
5346;DHT22;2695;49.444;11.054;2023-07-09T05:31:12;32.70;41.30
5346;DHT22;2695;49.444;11.054;2023-07-09T05:33:40;32.60;41.60
5346;DHT22;2695;49.444;11.054;2023-07-09T05:36:08;32.80;41.20
5346;DHT22;2695;49.444;11.054;2023-07-09T05:38:41;33.20;40.80
5346;DHT22;2695;49.444;11.054;2023-07-09T05:41:12;33.70;40.00
5346;DHT22;2695;49.444;11.054;2023-07-09T05:43:43;34.00;39.50
5346;DHT22;2695;49.444;11.054;2023-07-09T05:46:13;34.40;38.60
5346;DHT22;2695;49.444;11.054;2023-07-09T05:48:41;34.70;37.90
5346;DHT22;2695;49.444;11.054;2023-07-09T05:51:12;34.60;37.90
5346;DHT22;2695;49.444;11.054;2023-07-09T05:53:41;34.50;37.70
5346;DHT22;2695;49.444;11.054;2023-07-09T05:56:09;34.60;37.90
5346;DHT22;2695;49.444;11.054;2023-07-09T05:58:37;34.80;37.60
5346;DHT22;2695;49.444;11.054;2023-07-09T06:01:05;34.90;37.10
5346;DHT22;2695;49.444;11.054;2023-07-09T06:03:34;35.30;36.70
5346;DHT22;2695;49.444;11.054;2023-07-09T06:06:02;36.10;35.70
5346;DHT22;2695;49.444;11.054;2023-07-09T06:08:30;36.70;35.00
5346;DHT22;2695;49.444;11.054;2023-07-09T06:11:01;37.50;33.90
5346;DHT22;2695;49.444;11.054;2023-07-09T06:13:30;37.90;33.10
5346;DHT22;2695;49.444;11.054;2023-07-09T06:15:59;38.20;32.70
5346;DHT22;2695;49.444;11.054;2023-07-09T06:18:28;38.30;32.20
5346;DHT22;2695;49.444;11.054;2023-07-09T06:20:58;38.50;32.00
5346;DHT22;2695;49.444;11.054;2023-07-09T06:23:27;38.30;31.70
5346;DHT22;2695;49.444;11.054;2023-07-09T06:25:55;38.60;31.50
5346;DHT22;2695;49.444;11.054;2023-07-09T06:28:26;39.00;31.20
5346;DHT22;2695;49.444;11.054;2023-07-09T06:30:55;39.40;30.50
5346;DHT22;2695;49.444;11.054;2023-07-09T06:33:25;39.60;30.20
5346;DHT22;2695;49.444;11.054;2023-07-09T06:35:56;40.10;29.90
5346;DHT22;2695;49.444;11.054;2023-07-09T06:38:25;40.70;29.40
5346;DHT22;2695;49.444;11.054;2023-07-09T06:40:54;41.00;29.00
5346;DHT22;2695;49.444;11.054;2023-07-09T06:43:22;41.30;28.60
5346;DHT22;2695;49.444;11.054;2023-07-09T06:46:03;41.30;28.60
5346;DHT22;2695;49.444;11.054;2023-07-09T06:48:37;41.70;28.50
5346;DHT22;2695;49.444;11.054;2023-07-09T06:51:05;42.10;27.90
5346;DHT22;2695;49.444;11.054;2023-07-09T06:53:34;42.60;27.60
5346;DHT22;2695;49.444;11.054;2023-07-09T06:56:03;42.60;27.40
5346;DHT22;2695;49.444;11.054;2023-07-09T06:58:32;43.10;27.30
5346;DHT22;2695;49.444;11.054;2023-07-09T07:01:03;43.40;26.80
5346;DHT22;2695;49.444;11.054;2023-07-09T07:03:32;43.90;26.80
5346;DHT22;2695;49.444;11.054;2023-07-09T07:06:01;44.30;26.20
5346;DHT22;2695;49.444;11.054;2023-07-09T07:08:30;44.50;26.10
5346;DHT22;2695;49.444;11.054;2023-07-09T07:11:00;45.10;25.20
5346;DHT22;2695;49.444;11.054;2023-07-09T07:13:30;45.20;25.70
5346;DHT22;2695;49.444;11.054;2023-07-09T07:15:58;45.00;25.70
5346;DHT22;2695;49.444;11.054;2023-07-09T07:18:29;45.30;25.70
5346;DHT22;2695;49.444;11.054;2023-07-09T07:20:56;45.60;25.40
5346;DHT22;2695;49.444;11.054;2023-07-09T07:23:25;46.10;25.00
5346;DHT22;2695;49.444;11.054;2023-07-09T07:25:53;46.00;25.00
5346;DHT22;2695;49.444;11.054;2023-07-09T07:28:21;45.90;24.90
5346;DHT22;2695;49.444;11.054;2023-07-09T07:30:58;46.10;24.90
5346;DHT22;2695;49.444;11.054;2023-07-09T07:33:27;46.50;24.60
5346;DHT22;2695;49.444;11.054;2023-07-09T07:35:56;46.90;24.40
5346;DHT22;2695;49.444;11.054;2023-07-09T07:38:26;46.90;24.30
5346;DHT22;2695;49.444;11.054;2023-07-09T07:40:54;47.30;24.10
5346;DHT22;2695;49.444;11.054;2023-07-09T07:43:22;47.50;24.00
5346;DHT22;2695;49.444;11.054;2023-07-09T07:45:50;47.50;23.80
5346;DHT22;2695;49.444;11.054;2023-07-09T07:48:19;47.70;23.70
5346;DHT22;2695;49.444;11.054;2023-07-09T07:50:48;48.00;23.50
5346;DHT22;2695;49.444;11.054;2023-07-09T07:53:16;48.20;23.20
5346;DHT22;2695;49.444;11.054;2023-07-09T07:55:44;48.20;23.20
5346;DHT22;2695;49.444;11.054;2023-07-09T07:58:13;48.10;23.30
5346;DHT22;2695;49.444;11.054;2023-07-09T08:00:41;48.40;23.20
5346;DHT22;2695;49.444;11.054;2023-07-09T08:03:09;48.50;23.20
5346;DHT22;2695;49.444;11.054;2023-07-09T08:05:37;49.00;22.70
5346;DHT22;2695;49.444;11.054;2023-07-09T08:08:06;49.10;22.70
5346;DHT22;2695;49.444;11.054;2023-07-09T08:10:34;49.20;22.40
5346;DHT22;2695;49.444;11.054;2023-07-09T08:13:02;48.80;22.70
5346;DHT22;2695;49.444;11.054;2023-07-09T08:15:30;48.80;22.80
5346;DHT22;2695;49.444;11.054;2023-07-09T08:17:59;48.70;22.80
5346;DHT22;2695;49.444;11.054;2023-07-09T08:20:26;48.90;22.60
5346;DHT22;2695;49.444;11.054;2023-07-09T08:22:54;49.00;22.60
5346;DHT22;2695;49.444;11.054;2023-07-09T08:25:24;49.30;22.30
5346;DHT22;2695;49.444;11.054;2023-07-09T08:27:52;49.30;22.40
5346;DHT22;2695;49.444;11.054;2023-07-09T08:30:20;49.40;22.20
5346;DHT22;2695;49.444;11.054;2023-07-09T08:32:47;49.20;22.20
5346;DHT22;2695;49.444;11.054;2023-07-09T08:35:16;49.40;22.20
5346;DHT22;2695;49.444;11.054;2023-07-09T08:37:47;49.60;22.00
5346;DHT22;2695;49.444;11.054;2023-07-09T08:40:16;49.50;21.60
5346;DHT22;2695;49.444;11.054;2023-07-09T08:42:49;49.20;21.90
5346;DHT22;2695;49.444;11.054;2023-07-09T08:45:39;48.90;22.00
5346;DHT22;2695;49.444;11.054;2023-07-09T08:48:18;49.00;21.80
5346;DHT22;2695;49.444;11.054;2023-07-09T08:50:54;49.20;21.70
5346;DHT22;2695;49.444;11.054;2023-07-09T08:53:30;49.70;21.30
5346;DHT22;2695;49.444;11.054;2023-07-09T08:56:00;49.80;21.10
5346;DHT22;2695;49.444;11.054;2023-07-09T08:58:31;49.90;20.80
5346;DHT22;2695;49.444;11.054;2023-07-09T09:01:01;49.90;20.80
5346;DHT22;2695;49.444;11.054;2023-07-09T09:03:35;49.90;21.00
5346;DHT22;2695;49.444;11.054;2023-07-09T09:06:11;50.50;20.10
5346;DHT22;2695;49.444;11.054;2023-07-09T09:08:43;50.50;20.00
5346;DHT22;2695;49.444;11.054;2023-07-09T09:11:16;50.40;19.80
5346;DHT22;2695;49.444;11.054;2023-07-09T09:13:49;50.70;19.70
5346;DHT22;2695;49.444;11.054;2023-07-09T09:16:23;50.70;19.80
5346;DHT22;2695;49.444;11.054;2023-07-09T09:18:55;50.00;20.70
5346;DHT22;2695;49.444;11.054;2023-07-09T09:21:28;49.90;20.40
5346;DHT22;2695;49.444;11.054;2023-07-09T09:23:58;50.10;20.20
5346;DHT22;2695;49.444;11.054;2023-07-09T09:26:32;50.30;20.00
5346;DHT22;2695;49.444;11.054;2023-07-09T09:29:10;50.10;20.30
5346;DHT22;2695;49.444;11.054;2023-07-09T09:31:39;50.00;20.40
5346;DHT22;2695;49.444;11.054;2023-07-09T09:34:17;50.30;20.10
5346;DHT22;2695;49.444;11.054;2023-07-09T09:36:45;50.20;19.90
5346;DHT22;2695;49.444;11.054;2023-07-09T09:39:13;50.20;20.00
5346;DHT22;2695;49.444;11.054;2023-07-09T09:41:41;50.60;20.00
5346;DHT22;2695;49.444;11.054;2023-07-09T09:44:18;50.80;19.70
5346;DHT22;2695;49.444;11.054;2023-07-09T09:46:48;51.20;19.10
5346;DHT22;2695;49.444;11.054;2023-07-09T09:49:17;50.70;19.20
5346;DHT22;2695;49.444;11.054;2023-07-09T09:51:46;50.50;19.10
5346;DHT22;2695;49.444;11.054;2023-07-09T09:54:19;50.60;19.30
5346;DHT22;2695;49.444;11.054;2023-07-09T09:56:49;50.60;19.10
5346;DHT22;2695;49.444;11.054;2023-07-09T09:59:21;50.90;18.80
5346;DHT22;2695;49.444;11.054;2023-07-09T10:01:57;50.70;19.30
5346;DHT22;2695;49.444;11.054;2023-07-09T10:04:27;51.10;19.10
5346;DHT22;2695;49.444;11.054;2023-07-09T10:06:57;51.60;18.90
5346;DHT22;2695;49.444;11.054;2023-07-09T10:09:36;51.70;18.50
5346;DHT22;2695;49.444;11.054;2023-07-09T10:12:13;51.70;18.40
5346;DHT22;2695;49.444;11.054;2023-07-09T10:14:49;51.40;18.50
5346;DHT22;2695;49.444;11.054;2023-07-09T10:17:30;51.20;18.60
5346;DHT22;2695;49.444;11.054;2023-07-09T10:20:09;50.80;18.70
5346;DHT22;2695;49.444;11.054;2023-07-09T10:22:48;50.40;18.50
5346;DHT22;2695;49.444;11.054;2023-07-09T10:25:29;50.10;18.60
5346;DHT22;2695;49.444;11.054;2023-07-09T10:28:05;50.20;18.70
5346;DHT22;2695;49.444;11.054;2023-07-09T10:30:42;49.60;18.90
5346;DHT22;2695;49.444;11.054;2023-07-09T10:33:16;49.40;19.10
5346;DHT22;2695;49.444;11.054;2023-07-09T10:35:54;49.40;19.20
5346;DHT22;2695;49.444;11.054;2023-07-09T10:38:38;49.30;19.50
5346;DHT22;2695;49.444;11.054;2023-07-09T10:41:12;49.20;19.40
5346;DHT22;2695;49.444;11.054;2023-07-09T10:43:56;49.40;19.30
5346;DHT22;2695;49.444;11.054;2023-07-09T10:46:31;49.50;19.30
5346;DHT22;2695;49.444;11.054;2023-07-09T10:49:01;49.20;19.60
5346;DHT22;2695;49.444;11.054;2023-07-09T10:51:37;49.00;19.70
5346;DHT22;2695;49.444;11.054;2023-07-09T10:54:12;48.80;19.70
5346;DHT22;2695;49.444;11.054;2023-07-09T10:56:43;48.50;19.90
5346;DHT22;2695;49.444;11.054;2023-07-09T10:59:20;48.10;20.00
5346;DHT22;2695;49.444;11.054;2023-07-09T11:01:54;47.90;20.10
5346;DHT22;2695;49.444;11.054;2023-07-09T11:04:29;47.80;20.20
5346;DHT22;2695;49.444;11.054;2023-07-09T11:07:01;47.90;20.30
5346;DHT22;2695;49.444;11.054;2023-07-09T11:09:32;48.20;20.40
5346;DHT22;2695;49.444;11.054;2023-07-09T11:12:04;48.20;20.20
5346;DHT22;2695;49.444;11.054;2023-07-09T11:14:36;48.10;20.40
5346;DHT22;2695;49.444;11.054;2023-07-09T11:17:12;48.00;20.50
5346;DHT22;2695;49.444;11.054;2023-07-09T11:19:42;47.70;20.50
5346;DHT22;2695;49.444;11.054;2023-07-09T11:22:15;47.20;20.90
5346;DHT22;2695;49.444;11.054;2023-07-09T11:24:47;46.90;20.90
5346;DHT22;2695;49.444;11.054;2023-07-09T11:27:22;47.00;21.20
5346;DHT22;2695;49.444;11.054;2023-07-09T11:29:58;47.10;20.70
5346;DHT22;2695;49.444;11.054;2023-07-09T11:32:28;46.90;20.70
5346;DHT22;2695;49.444;11.054;2023-07-09T11:35:07;46.90;20.90
5346;DHT22;2695;49.444;11.054;2023-07-09T11:37:44;46.70;20.80
5346;DHT22;2695;49.444;11.054;2023-07-09T11:40:14;46.30;20.90
5346;DHT22;2695;49.444;11.054;2023-07-09T11:42:51;46.00;21.00
5346;DHT22;2695;49.444;11.054;2023-07-09T11:45:23;45.40;21.20
5346;DHT22;2695;49.444;11.054;2023-07-09T11:47:58;44.90;21.70
5346;DHT22;2695;49.444;11.054;2023-07-09T11:50:34;44.80;21.90
5346;DHT22;2695;49.444;11.054;2023-07-09T11:53:05;44.70;21.90
5346;DHT22;2695;49.444;11.054;2023-07-09T11:55:40;44.40;22.20
5346;DHT22;2695;49.444;11.054;2023-07-09T11:58:11;43.80;22.40
5346;DHT22;2695;49.444;11.054;2023-07-09T12:00:45;43.50;22.40
5346;DHT22;2695;49.444;11.054;2023-07-09T12:03:19;43.10;22.90
5346;DHT22;2695;49.444;11.054;2023-07-09T12:05:50;42.80;23.20
5346;DHT22;2695;49.444;11.054;2023-07-09T12:08:27;42.30;23.50
5346;DHT22;2695;49.444;11.054;2023-07-09T12:10:56;41.40;23.80
5346;DHT22;2695;49.444;11.054;2023-07-09T12:13:24;40.90;24.70
5346;DHT22;2695;49.444;11.054;2023-07-09T12:15:52;40.50;24.90
5346;DHT22;2695;49.444;11.054;2023-07-09T12:18:21;40.30;25.00
5346;DHT22;2695;49.444;11.054;2023-07-09T12:20:52;40.00;25.50
5346;DHT22;2695;49.444;11.054;2023-07-09T12:23:23;39.60;25.50
5346;DHT22;2695;49.444;11.054;2023-07-09T12:25:54;39.20;26.00
5346;DHT22;2695;49.444;11.054;2023-07-09T12:28:22;38.80;26.50
5346;DHT22;2695;49.444;11.054;2023-07-09T12:30:51;38.50;26.50
5346;DHT22;2695;49.444;11.054;2023-07-09T12:33:22;38.50;26.60
5346;DHT22;2695;49.444;11.054;2023-07-09T12:35:56;38.30;26.90
5346;DHT22;2695;49.444;11.054;2023-07-09T12:38:26;38.30;26.80
5346;DHT22;2695;49.444;11.054;2023-07-09T12:40:55;38.40;26.80
5346;DHT22;2695;49.444;11.054;2023-07-09T12:43:25;38.40;26.90
5346;DHT22;2695;49.444;11.054;2023-07-09T12:45:54;38.40;26.90
5346;DHT22;2695;49.444;11.054;2023-07-09T12:48:26;38.40;26.90
5346;DHT22;2695;49.444;11.054;2023-07-09T12:50:56;38.20;27.00
5346;DHT22;2695;49.444;11.054;2023-07-09T12:53:26;37.90;27.10
5346;DHT22;2695;49.444;11.054;2023-07-09T12:55:56;37.90;27.40
5346;DHT22;2695;49.444;11.054;2023-07-09T12:58:25;38.00;27.40
5346;DHT22;2695;49.444;11.054;2023-07-09T13:00:55;38.10;27.10
5346;DHT22;2695;49.444;11.054;2023-07-09T13:03:27;38.20;27.00
5346;DHT22;2695;49.444;11.054;2023-07-09T13:05:57;37.90;27.20
5346;DHT22;2695;49.444;11.054;2023-07-09T13:08:27;37.60;27.50
5346;DHT22;2695;49.444;11.054;2023-07-09T13:10:56;37.40;27.80
5346;DHT22;2695;49.444;11.054;2023-07-09T13:13:24;37.30;27.60
5346;DHT22;2695;49.444;11.054;2023-07-09T13:15:55;37.30;27.70
5346;DHT22;2695;49.444;11.054;2023-07-09T13:18:27;37.30;27.90
5346;DHT22;2695;49.444;11.054;2023-07-09T13:20:55;37.50;27.60
5346;DHT22;2695;49.444;11.054;2023-07-09T13:23:25;37.50;27.60
5346;DHT22;2695;49.444;11.054;2023-07-09T13:25:53;37.50;27.30
5346;DHT22;2695;49.444;11.054;2023-07-09T13:28:25;37.60;27.50
5346;DHT22;2695;49.444;11.054;2023-07-09T13:30:56;37.80;27.30
5346;DHT22;2695;49.444;11.054;2023-07-09T13:33:26;37.80;27.20
5346;DHT22;2695;49.444;11.054;2023-07-09T13:35:56;38.10;27.20
5346;DHT22;2695;49.444;11.054;2023-07-09T13:38:24;38.20;27.00
5346;DHT22;2695;49.444;11.054;2023-07-09T13:40:55;38.40;26.80
5346;DHT22;2695;49.444;11.054;2023-07-09T13:43:27;38.40;26.70
5346;DHT22;2695;49.444;11.054;2023-07-09T13:45:56;38.40;26.70
5346;DHT22;2695;49.444;11.054;2023-07-09T13:48:26;38.40;26.20
5346;DHT22;2695;49.444;11.054;2023-07-09T13:50:56;38.40;26.70
5346;DHT22;2695;49.444;11.054;2023-07-09T13:53:27;38.30;26.80
5346;DHT22;2695;49.444;11.054;2023-07-09T13:55:57;38.10;27.00
5346;DHT22;2695;49.444;11.054;2023-07-09T13:58:27;38.10;26.90
5346;DHT22;2695;49.444;11.054;2023-07-09T14:00:57;38.00;26.80
5346;DHT22;2695;49.444;11.054;2023-07-09T14:03:34;37.70;26.80
5346;DHT22;2695;49.444;11.054;2023-07-09T14:06:02;37.40;27.10
5346;DHT22;2695;49.444;11.054;2023-07-09T14:08:30;37.30;27.60
5346;DHT22;2695;49.444;11.054;2023-07-09T14:10:59;37.20;27.80
5346;DHT22;2695;49.444;11.054;2023-07-09T14:13:29;37.10;27.60
5346;DHT22;2695;49.444;11.054;2023-07-09T14:15:58;37.10;27.70
5346;DHT22;2695;49.444;11.054;2023-07-09T14:18:27;37.10;27.80
5346;DHT22;2695;49.444;11.054;2023-07-09T14:20:56;37.10;27.80
5346;DHT22;2695;49.444;11.054;2023-07-09T14:23:25;37.10;27.90
5346;DHT22;2695;49.444;11.054;2023-07-09T14:25:53;37.30;27.90
5346;DHT22;2695;49.444;11.054;2023-07-09T14:28:21;37.40;27.60
5346;DHT22;2695;49.444;11.054;2023-07-09T14:30:49;37.50;27.70
5346;DHT22;2695;49.444;11.054;2023-07-09T14:33:20;37.50;27.50
5346;DHT22;2695;49.444;11.054;2023-07-09T14:35:49;37.40;27.40
5346;DHT22;2695;49.444;11.054;2023-07-09T14:38:22;37.20;28.00
5346;DHT22;2695;49.444;11.054;2023-07-09T14:40:51;37.10;27.60
5346;DHT22;2695;49.444;11.054;2023-07-09T14:43:20;37.20;27.50
5346;DHT22;2695;49.444;11.054;2023-07-09T14:45:48;37.10;27.40
5346;DHT22;2695;49.444;11.054;2023-07-09T14:48:18;37.00;27.40
5346;DHT22;2695;49.444;11.054;2023-07-09T14:50:47;37.20;27.70
5346;DHT22;2695;49.444;11.054;2023-07-09T14:53:20;37.00;27.50
5346;DHT22;2695;49.444;11.054;2023-07-09T14:55:49;37.00;27.80
5346;DHT22;2695;49.444;11.054;2023-07-09T14:58:18;37.10;27.80
5346;DHT22;2695;49.444;11.054;2023-07-09T15:00:49;37.10;27.50
5346;DHT22;2695;49.444;11.054;2023-07-09T15:03:20;37.00;27.60
5346;DHT22;2695;49.444;11.054;2023-07-09T15:05:49;36.90;27.40
5346;DHT22;2695;49.444;11.054;2023-07-09T15:08:31;36.80;27.80
5346;DHT22;2695;49.444;11.054;2023-07-09T15:11:09;36.70;27.80
5346;DHT22;2695;49.444;11.054;2023-07-09T15:13:42;36.50;28.20
5346;DHT22;2695;49.444;11.054;2023-07-09T15:16:17;36.30;28.20
5346;DHT22;2695;49.444;11.054;2023-07-09T15:18:45;36.20;28.70
5346;DHT22;2695;49.444;11.054;2023-07-09T15:21:13;36.60;28.60
5346;DHT22;2695;49.444;11.054;2023-07-09T15:23:44;36.20;28.40
5346;DHT22;2695;49.444;11.054;2023-07-09T15:26:13;36.20;28.90
5346;DHT22;2695;49.444;11.054;2023-07-09T15:28:42;36.10;28.40
5346;DHT22;2695;49.444;11.054;2023-07-09T15:31:10;35.90;28.50
5346;DHT22;2695;49.444;11.054;2023-07-09T15:33:38;35.80;28.60
5346;DHT22;2695;49.444;11.054;2023-07-09T15:36:09;35.80;28.70
5346;DHT22;2695;49.444;11.054;2023-07-09T15:38:38;35.70;28.80
5346;DHT22;2695;49.444;11.054;2023-07-09T15:41:11;35.80;28.70
5346;DHT22;2695;49.444;11.054;2023-07-09T15:43:41;35.80;28.80
5346;DHT22;2695;49.444;11.054;2023-07-09T15:46:17;35.60;28.70
5346;DHT22;2695;49.444;11.054;2023-07-09T15:48:46;35.60;28.80
5346;DHT22;2695;49.444;11.054;2023-07-09T15:51:15;35.60;29.00
5346;DHT22;2695;49.444;11.054;2023-07-09T15:53:42;35.60;28.80
5346;DHT22;2695;49.444;11.054;2023-07-09T15:56:18;35.70;29.10
5346;DHT22;2695;49.444;11.054;2023-07-09T15:58:48;36.00;29.00
5346;DHT22;2695;49.444;11.054;2023-07-09T16:01:18;35.80;29.20
5346;DHT22;2695;49.444;11.054;2023-07-09T16:03:47;35.80;28.50